Terminal Aerodrome Forecast
Issued by NWS Cleveland, OH

Home | Current Version | Previous Version | Graphics & Text | Print | Product List | Glossary On
Versions: 1 2 3 4 5 6 7 8 9 10 11 12 13 14 15 16 17 18 19 20 21 22 23
383
FTUS41 KCLE 261525 AAA
TAFCAK
TAF AMD
KCAK 261525Z 2615/2712 24014G24KT P6SM BKN012 OVC020
     FM261700 33014G24KT 2SM BR OVC004
     FM262100 36012G18KT 5SM BR OVC008
     FM270000 03010KT P6SM OVC010=

USA.gov is the U.S. government's official web portal to all federal, state and local government web resources and services.